createdAt,value
2023-04-11T00:02:01.523Z,16.02
2023-04-11T00:04:29.284Z,16.25
2023-04-11T00:06:57.644Z,16.37
2023-04-11T00:09:25.706Z,16.42
2023-04-11T00:11:53.575Z,16.17
2023-04-11T00:14:21.178Z,16.07
2023-04-11T00:16:49.968Z,16.02
2023-04-11T00:19:17.703Z,16.12
2023-04-11T00:21:46.272Z,16.16
2023-04-11T00:24:19.202Z,15.84
2023-04-11T00:26:46.781Z,15.97
2023-04-11T00:29:14.331Z,16.01
2023-04-11T00:31:41.992Z,16.27
2023-04-11T00:34:10.357Z,16.30
2023-04-11T00:36:38.219Z,16.43
2023-04-11T00:39:06.026Z,16.32
2023-04-11T00:41:34.265Z,16.56
2023-04-11T00:44:02.090Z,16.54
2023-04-11T00:46:30.139Z,16.46
2023-04-11T00:48:58.027Z,16.42
2023-04-11T00:51:27.305Z,16.43
2023-04-11T00:53:55.064Z,16.40
2023-04-11T00:56:23.193Z,16.33
2023-04-11T00:58:50.857Z,16.54
2023-04-11T01:01:20.028Z,16.62
2023-04-11T01:03:54.269Z,16.63
2023-04-11T01:06:23.441Z,16.35
2023-04-11T01:08:51.196Z,16.30
2023-04-11T01:11:20.274Z,16.16
2023-04-11T01:13:49.429Z,16.19
2023-04-11T01:16:21.492Z,16.15
2023-04-11T01:18:50.009Z,16.30
2023-04-11T01:21:19.583Z,16.41
2023-04-11T01:23:52.813Z,16.49
2023-04-11T01:26:20.759Z,16.47
2023-04-11T01:28:48.509Z,16.55
2023-04-11T01:31:16.168Z,16.57
2023-04-11T01:33:43.987Z,16.69
2023-04-11T01:36:12.235Z,16.44
2023-04-11T01:38:39.895Z,16.39
2023-04-11T01:41:15.223Z,16.57
2023-04-11T01:43:44.060Z,16.30
2023-04-11T01:46:12.937Z,16.25
2023-04-11T01:48:41.178Z,16.30
2023-04-11T01:51:08.972Z,16.32
2023-04-11T01:53:36.619Z,16.36
2023-04-11T01:56:07.820Z,16.36
2023-04-11T01:58:36.138Z,16.19
2023-04-11T02:01:03.958Z,16.10
2023-04-11T02:03:32.032Z,16.07
2023-04-11T02:05:59.878Z,16.03
2023-04-11T02:08:27.442Z,15.69
2023-04-11T02:10:56.599Z,15.62
2023-04-11T02:13:24.347Z,15.59
2023-04-11T02:15:52.008Z,15.62
2023-04-11T02:18:19.602Z,15.60
2023-04-11T02:20:47.754Z,15.16
2023-04-11T02:23:16.227Z,14.59
2023-04-11T02:25:43.940Z,14.04
2023-04-11T02:28:11.529Z,13.48
2023-04-11T02:30:39.176Z,12.33
2023-04-11T02:33:06.801Z,11.98
2023-04-11T02:35:34.405Z,12.02
2023-04-11T02:38:02.017Z,11.90
2023-04-11T02:40:31.159Z,11.73
2023-04-11T02:43:01.068Z,11.70
2023-04-11T02:45:28.902Z,11.56
2023-04-11T02:47:56.575Z,11.64
2023-04-11T02:50:26.935Z,11.44
2023-04-11T02:52:55.368Z,11.47
2023-04-11T02:55:27.073Z,11.63
2023-04-11T02:57:54.733Z,11.65
2023-04-11T03:00:23.038Z,11.69
2023-04-11T03:02:59.847Z,11.70
2023-04-11T03:05:29.444Z,11.76
2023-04-11T03:07:57.774Z,11.72
2023-04-11T03:10:27.697Z,11.92
2023-04-11T03:12:56.264Z,11.95
2023-04-11T03:15:24.150Z,11.93
2023-04-11T03:17:51.773Z,11.64
2023-04-11T03:20:20.175Z,11.35
2023-04-11T03:22:53.541Z,11.30
2023-04-11T03:25:24.292Z,11.28
2023-04-11T03:27:53.113Z,11.18
2023-04-11T03:30:21.008Z,11.20
2023-04-11T03:32:49.154Z,11.09
2023-04-11T03:35:18.668Z,11.05
2023-04-11T03:37:48.184Z,10.95
2023-04-11T03:40:18.771Z,11.09
2023-04-11T03:42:52.894Z,11.18
2023-04-11T03:45:25.441Z,11.19
2023-04-11T03:47:55.175Z,11.21
2023-04-11T03:50:26.968Z,11.21
2023-04-11T03:52:59.890Z,11.27
2023-04-11T03:55:28.841Z,11.36
2023-04-11T03:57:57.943Z,11.33
2023-04-11T04:00:27.672Z,11.41
2023-04-11T04:03:04.587Z,11.23
2023-04-11T04:05:33.800Z,11.30
2023-04-11T04:08:02.868Z,11.27
2023-04-11T04:10:42.084Z,11.30
2023-04-11T04:13:10.928Z,11.43
2023-04-11T04:15:43.193Z,11.58
2023-04-11T04:18:13.503Z,11.65
2023-04-11T04:20:47.735Z,11.43
2023-04-11T04:23:18.113Z,11.45
2023-04-11T04:26:13.166Z,11.37
2023-04-11T04:28:47.316Z,11.43
2023-04-11T04:31:25.502Z,11.13
2023-04-11T04:34:11.692Z,11.03
2023-04-11T04:36:46.736Z,11.00
2023-04-11T04:39:25.518Z,10.81
2023-04-11T04:42:07.270Z,10.94
2023-04-11T04:44:42.226Z,10.84
2023-04-11T04:47:18.133Z,10.75
2023-04-11T04:49:46.331Z,10.90
2023-04-11T04:52:15.592Z,10.79
2023-04-11T04:54:43.329Z,10.76
2023-04-11T04:57:10.820Z,10.77
2023-04-11T04:59:38.561Z,10.72
2023-04-11T05:02:13.508Z,10.81
2023-04-11T05:04:42.519Z,10.46
2023-04-11T05:07:13.877Z,10.44
2023-04-11T05:09:41.829Z,10.41
2023-04-11T05:12:26.345Z,10.39
2023-04-11T05:14:58.163Z,9.75
2023-04-11T05:17:29.540Z,9.69
2023-04-11T05:19:57.734Z,9.64
2023-04-11T05:22:27.196Z,9.51
2023-04-11T05:24:57.488Z,9.36
2023-04-11T05:27:25.902Z,9.28
2023-04-11T05:29:54.286Z,9.07
2023-04-11T05:32:22.169Z,9.02
2023-04-11T05:34:59.144Z,9.12
2023-04-11T05:37:44.864Z,8.98
2023-04-11T05:40:13.237Z,9.02
2023-04-11T05:42:41.121Z,8.82
2023-04-11T05:45:09.610Z,9.05
2023-04-11T05:47:37.488Z,9.01
2023-04-11T05:50:07.180Z,9.02
2023-04-11T05:52:34.711Z,8.98
2023-04-11T05:55:02.397Z,9.01
2023-04-11T05:57:30.008Z,9.35
2023-04-11T05:59:57.786Z,9.38
2023-04-11T06:02:25.834Z,9.41
2023-04-11T06:04:53.767Z,9.45
2023-04-11T06:07:22.442Z,9.46
2023-04-11T06:09:50.105Z,9.48
2023-04-11T06:12:17.663Z,9.58
2023-04-11T06:14:51.236Z,9.51
2023-04-11T06:17:19.323Z,9.80
2023-04-11T06:19:46.854Z,9.98
2023-04-11T06:22:16.636Z,9.96
2023-04-11T06:24:47.137Z,10.22
2023-04-11T06:27:14.816Z,10.36
2023-04-11T06:29:45.642Z,10.03
2023-04-11T06:32:13.468Z,9.62
2023-04-11T06:34:41.602Z,9.25
2023-04-11T06:37:09.887Z,9.47
2023-04-11T06:39:38.018Z,9.72
2023-04-11T06:42:05.849Z,9.89
2023-04-11T06:44:34.829Z,9.66
2023-04-11T06:47:03.189Z,9.56
2023-04-11T06:49:31.323Z,9.83
2023-04-11T06:51:59.541Z,10.00
2023-04-11T06:54:27.109Z,9.61
2023-04-11T06:56:54.984Z,9.26
2023-04-11T06:59:23.895Z,9.16
2023-04-11T07:01:52.473Z,9.13
2023-04-11T07:04:20.823Z,8.96
2023-04-11T07:06:48.729Z,9.07
2023-04-11T07:09:16.425Z,8.94
2023-04-11T07:11:44.417Z,9.27
2023-04-11T07:14:12.017Z,9.20
2023-04-11T07:16:39.733Z,9.55
2023-04-11T07:19:08.383Z,9.53
2023-04-11T07:21:38.340Z,9.21
2023-04-11T07:24:06.913Z,9.61
2023-04-11T07:26:35.976Z,9.42
2023-04-11T07:29:04.052Z,9.49
2023-04-11T07:31:31.631Z,9.70
2023-04-11T07:33:59.255Z,10.14
2023-04-11T07:36:27.425Z,9.85
2023-04-11T07:38:55.518Z,9.76
2023-04-11T07:41:23.122Z,9.67
2023-04-11T07:43:51.178Z,9.88
2023-04-11T07:46:19.176Z,10.38
2023-04-11T07:48:47.254Z,10.71
2023-04-11T07:51:14.886Z,10.93
2023-04-11T07:53:42.493Z,11.10
2023-04-11T07:56:10.961Z,11.39
2023-04-11T07:58:38.916Z,11.70
2023-04-11T08:01:09.041Z,11.87
2023-04-11T08:03:36.932Z,11.47
2023-04-11T08:06:05.178Z,12.07
2023-04-11T08:08:33.427Z,12.64
2023-04-11T08:11:01.300Z,12.97
2023-04-11T08:13:28.911Z,13.12
2023-04-11T08:15:56.964Z,12.78
2023-04-11T08:18:25.516Z,12.93
2023-04-11T08:20:53.470Z,12.91
2023-04-11T08:23:21.600Z,12.72
2023-04-11T08:25:49.421Z,12.78
2023-04-11T08:28:17.123Z,12.88
2023-04-11T08:30:44.821Z,12.75
2023-04-11T08:33:12.849Z,13.01
2023-04-11T08:35:42.996Z,13.07
2023-04-11T08:38:16.733Z,12.67
2023-04-11T08:40:44.917Z,12.93
2023-04-11T08:43:13.301Z,13.25
2023-04-11T08:45:44.781Z,13.34
2023-04-11T08:48:16.658Z,13.63
2023-04-11T08:50:45.210Z,13.22
2023-04-11T08:53:14.656Z,13.16
2023-04-11T08:55:48.824Z,13.10
2023-04-11T08:58:17.201Z,12.93
2023-04-11T09:00:48.324Z,13.41
2023-04-11T09:03:17.682Z,13.11
2023-04-11T09:05:47.152Z,13.15
2023-04-11T09:08:16.961Z,13.28
2023-04-11T09:10:46.170Z,13.49
2023-04-11T09:13:26.486Z,13.75
2023-04-11T09:16:14.470Z,13.76
2023-04-11T09:18:45.836Z,14.18
2023-04-11T09:21:19.118Z,14.35
2023-04-11T09:23:46.820Z,14.60
2023-04-11T09:26:27.707Z,14.24
2023-04-11T09:28:55.928Z,14.22
2023-04-11T09:31:44.491Z,14.32
2023-04-11T09:34:13.473Z,14.59
2023-04-11T09:36:42.331Z,14.07
2023-04-11T09:39:17.995Z,13.95
2023-04-11T09:41:46.072Z,14.24
2023-04-11T09:44:14.970Z,14.74
2023-04-11T09:47:01.304Z,14.39
2023-04-11T09:49:29.660Z,14.06
2023-04-11T09:51:59.533Z,13.99
2023-04-11T09:54:28.554Z,13.88
2023-04-11T09:56:57.470Z,14.00
2023-04-11T09:59:27.339Z,14.13
2023-04-11T10:01:56.992Z,14.33
2023-04-11T10:04:28.209Z,14.49
2023-04-11T10:07:16.854Z,14.48
2023-04-11T10:09:47.597Z,14.64
2023-04-11T10:12:35.283Z,14.80
2023-04-11T10:15:09.694Z,14.84
2023-04-11T10:17:37.652Z,14.79
2023-04-11T10:20:31.544Z,15.05
2023-04-11T10:23:00.468Z,15.60
2023-04-11T10:25:29.452Z,15.71
2023-04-11T10:28:01.531Z,15.79
2023-04-11T10:30:41.545Z,15.95
2023-04-11T10:33:18.013Z,16.42
2023-04-11T10:36:22.212Z,16.08
2023-04-11T10:38:51.751Z,15.66
2023-04-11T10:41:27.921Z,15.98
2023-04-11T10:44:18.004Z,15.70
2023-04-11T10:46:51.954Z,16.02
2023-04-11T10:49:40.381Z,15.98
2023-04-11T10:52:22.520Z,16.02
2023-04-11T10:54:54.732Z,16.10
2023-04-11T10:57:23.353Z,16.13
2023-04-11T10:59:51.421Z,16.49
2023-04-11T11:02:19.918Z,16.76
2023-04-11T11:04:49.442Z,16.62
2023-04-11T11:07:17.387Z,16.53
2023-04-11T11:09:52.194Z,16.36
2023-04-11T11:12:28.894Z,17.09
2023-04-11T11:15:13.454Z,16.61
2023-04-11T11:17:43.214Z,16.26
2023-04-11T11:20:20.147Z,16.35
2023-04-11T11:23:05.621Z,16.83
2023-04-11T11:25:34.153Z,16.54
2023-04-11T11:28:09.445Z,15.71
2023-04-11T11:30:38.666Z,15.24
2023-04-11T11:33:18.289Z,15.77
2023-04-11T11:35:55.574Z,15.71
2023-04-11T11:38:28.318Z,15.94
2023-04-11T11:40:57.685Z,15.23
2023-04-11T11:43:29.561Z,15.59
2023-04-11T11:46:16.968Z,15.73
2023-04-11T11:49:03.741Z,16.32
2023-04-11T11:51:49.091Z,16.57
2023-04-11T11:54:17.200Z,15.96
2023-04-11T11:56:52.952Z,15.95
2023-04-11T11:59:29.847Z,16.41
2023-04-11T12:01:57.505Z,16.03
2023-04-11T12:04:27.313Z,16.83
2023-04-11T12:06:55.938Z,17.72
2023-04-11T12:09:31.787Z,18.49
2023-04-11T12:11:59.556Z,18.44
2023-04-11T12:14:27.290Z,17.52
2023-04-11T12:16:55.172Z,17.70
2023-04-11T12:19:23.583Z,18.30
2023-04-11T12:21:52.976Z,17.78
2023-04-11T12:24:20.588Z,17.86
2023-04-11T12:27:05.547Z,17.92
2023-04-11T12:29:35.126Z,18.06
2023-04-11T12:32:02.716Z,18.15
2023-04-11T12:34:31.160Z,18.40
2023-04-11T12:36:58.893Z,17.89
2023-04-11T12:39:26.581Z,17.63
2023-04-11T12:41:54.196Z,17.65
2023-04-11T12:44:21.825Z,17.02
2023-04-11T12:46:49.644Z,16.72
2023-04-11T12:49:17.404Z,16.91
2023-04-11T12:51:44.950Z,16.76
2023-04-11T12:54:13.031Z,17.09
2023-04-11T12:56:41.178Z,17.15
2023-04-11T12:59:09.523Z,17.93
2023-04-11T13:01:37.467Z,18.15
2023-04-11T13:04:05.917Z,17.92
2023-04-11T13:06:34.057Z,17.27
2023-04-11T13:09:02.360Z,18.03
2023-04-11T13:11:30.303Z,18.02
2023-04-11T13:13:58.029Z,18.20
2023-04-11T13:16:25.692Z,18.54
2023-04-11T13:18:53.352Z,19.14
2023-04-11T13:21:21.055Z,19.36
2023-04-11T13:23:48.698Z,18.54
2023-04-11T13:26:45.278Z,18.92
2023-04-11T13:29:13.121Z,19.20
2023-04-11T13:31:40.862Z,19.12
2023-04-11T13:34:10.232Z,19.38
2023-04-11T13:36:38.137Z,20.02
2023-04-11T13:39:06.117Z,21.44
2023-04-11T13:41:33.879Z,21.84
2023-04-11T13:44:01.875Z,22.40
2023-04-11T13:46:29.802Z,22.46
2023-04-11T13:48:58.333Z,23.42
2023-04-11T13:51:27.170Z,23.21
2023-04-11T13:53:54.913Z,23.57
2023-04-11T13:56:23.393Z,24.90
2023-04-11T13:58:51.838Z,24.48
2023-04-11T14:01:20.159Z,22.10
2023-04-11T14:03:53.657Z,21.65
2023-04-11T14:06:22.578Z,21.73
2023-04-11T14:08:51.969Z,21.41
2023-04-11T14:11:20.435Z,20.94
2023-04-11T14:13:48.692Z,21.01
2023-04-11T14:16:16.447Z,21.51
2023-04-11T14:18:44.579Z,20.43
2023-04-11T14:21:12.232Z,20.61
2023-04-11T14:23:39.921Z,21.81
2023-04-11T14:26:08.218Z,22.50
2023-04-11T14:28:36.699Z,23.06
2023-04-11T14:31:04.609Z,22.51
2023-04-11T14:33:32.397Z,21.62
2023-04-11T14:36:00.788Z,22.63
2023-04-11T14:38:28.585Z,23.39
2023-04-11T14:40:56.286Z,23.36
2023-04-11T14:43:24.276Z,22.88
2023-04-11T14:45:57.912Z,21.80
2023-04-11T14:48:27.357Z,20.42
2023-04-11T14:50:55.393Z,19.02
2023-04-11T14:53:31.174Z,18.14
2023-04-11T14:55:58.743Z,18.68
2023-04-11T14:58:26.510Z,18.81
2023-04-11T15:00:54.120Z,19.14
2023-04-11T15:03:21.833Z,18.79
2023-04-11T15:05:49.946Z,19.48
2023-04-11T15:08:18.141Z,20.58
2023-04-11T15:10:46.130Z,20.88
2023-04-11T15:13:13.675Z,20.18
2023-04-11T15:15:41.235Z,18.99
2023-04-11T15:18:29.888Z,19.25
2023-04-11T15:20:59.959Z,18.79
2023-04-11T15:23:27.744Z,18.65
2023-04-11T15:26:04.043Z,20.27
2023-04-11T15:28:34.681Z,21.25
2023-04-11T15:31:05.212Z,19.75
2023-04-11T15:33:33.279Z,20.33
2023-04-11T15:36:01.728Z,19.86
2023-04-11T15:38:29.942Z,18.60
2023-04-11T15:40:59.914Z,17.79
2023-04-11T15:43:27.996Z,18.65
2023-04-11T15:45:56.096Z,19.32
2023-04-11T15:48:24.126Z,19.77
2023-04-11T15:50:51.885Z,20.60
2023-04-11T15:53:19.950Z,20.37
2023-04-11T15:55:47.708Z,19.89
2023-04-11T15:58:16.251Z,19.06
2023-04-11T16:00:44.796Z,18.67
2023-04-11T16:03:12.879Z,18.60
2023-04-11T16:05:43.322Z,19.23
2023-04-11T16:08:11.883Z,19.29
2023-04-11T16:10:40.050Z,18.64
2023-04-11T16:13:07.878Z,18.09
2023-04-11T16:15:35.589Z,17.86
2023-04-11T16:18:03.169Z,18.22
2023-04-11T16:20:34.485Z,18.12
2023-04-11T16:23:02.087Z,18.20
2023-04-11T16:25:29.747Z,17.87
2023-04-11T16:27:57.653Z,17.70
2023-04-11T16:30:27.744Z,17.59
2023-04-11T16:32:55.422Z,17.27
2023-04-11T16:35:22.998Z,17.04
2023-04-11T16:37:53.418Z,16.80
2023-04-11T16:40:21.140Z,16.38
2023-04-11T16:42:48.812Z,16.32
2023-04-11T16:45:16.742Z,16.40
2023-04-11T16:47:44.448Z,16.59
2023-04-11T16:50:12.027Z,16.22
2023-04-11T16:52:39.542Z,15.63
2023-04-11T16:55:07.558Z,15.90
2023-04-11T16:57:35.446Z,15.75
2023-04-11T17:00:17.023Z,15.52
2023-04-11T17:02:44.875Z,15.61
2023-04-11T17:05:14.960Z,15.86
2023-04-11T17:07:43.847Z,15.87
2023-04-11T17:10:11.998Z,15.76
2023-04-11T17:12:39.982Z,15.81
2023-04-11T17:15:08.576Z,15.89
2023-04-11T17:17:36.813Z,15.80
2023-04-11T17:20:09.296Z,15.77
2023-04-11T17:22:39.218Z,15.71
2023-04-11T17:25:07.405Z,15.69
2023-04-11T17:27:35.001Z,15.61
2023-04-11T17:30:03.959Z,15.44
2023-04-11T17:32:31.697Z,15.18
2023-04-11T17:35:00.732Z,15.20
2023-04-11T17:37:28.620Z,15.19
2023-04-11T17:39:56.300Z,15.25
2023-04-11T17:42:23.938Z,15.16
2023-04-11T17:44:51.669Z,15.01
2023-04-11T17:47:19.252Z,14.83
2023-04-11T17:49:46.847Z,14.99
2023-04-11T17:52:14.411Z,15.00
2023-04-11T17:54:42.041Z,14.97
2023-04-11T17:57:09.744Z,14.82
2023-04-11T17:59:37.373Z,14.78
2023-04-11T18:02:05.244Z,14.68
2023-04-11T18:04:34.060Z,14.40
2023-04-11T18:07:02.811Z,14.43
2023-04-11T18:09:31.896Z,14.41
2023-04-11T18:12:00.255Z,14.46
2023-04-11T18:14:28.160Z,14.46
2023-04-11T18:16:55.969Z,14.52
2023-04-11T18:19:23.567Z,14.53
2023-04-11T18:21:51.916Z,14.44
2023-04-11T18:24:19.566Z,14.00
2023-04-11T18:26:48.104Z,13.99
2023-04-11T18:29:15.993Z,13.99
2023-04-11T18:31:43.733Z,14.13
2023-04-11T18:34:12.230Z,14.01
2023-04-11T18:36:40.538Z,13.97
2023-04-11T18:39:08.960Z,14.01
2023-04-11T18:41:36.472Z,13.95
2023-04-11T18:44:05.769Z,13.93
2023-04-11T18:46:35.453Z,13.84
2023-04-11T18:49:04.850Z,13.76
2023-04-11T18:51:35.457Z,13.72
2023-04-11T18:54:03.239Z,13.60
2023-04-11T18:56:30.903Z,13.56
2023-04-11T19:01:27.313Z,13.03
2023-04-11T19:03:56.986Z,12.84
2023-04-11T19:06:25.589Z,12.72
2023-04-11T19:08:53.181Z,12.77
2023-04-11T19:11:21.637Z,12.27
2023-04-11T19:13:49.255Z,12.28
2023-04-11T19:16:17.113Z,12.30
2023-04-11T19:18:44.727Z,12.49
2023-04-11T19:21:12.310Z,12.43
2023-04-11T19:23:39.889Z,12.37
2023-04-11T19:26:07.516Z,12.23
2023-04-11T19:28:35.272Z,12.41
2023-04-11T19:31:02.953Z,12.40
2023-04-11T19:33:30.931Z,12.32
2023-04-11T19:35:58.706Z,12.21
2023-04-11T19:38:26.361Z,12.31
2023-04-11T19:40:54.073Z,12.26
2023-04-11T19:43:21.944Z,12.13
2023-04-11T19:45:51.717Z,12.16
2023-04-11T19:48:19.370Z,12.02
2023-04-11T19:50:46.911Z,12.13
2023-04-11T19:53:14.446Z,12.16
2023-04-11T19:55:42.394Z,11.84
2023-04-11T19:58:10.621Z,11.99
2023-04-11T20:00:38.602Z,12.03
2023-04-11T20:03:07.538Z,11.94
2023-04-11T20:05:36.199Z,11.99
2023-04-11T20:08:04.414Z,11.99
2023-04-11T20:10:32.360Z,11.91
2023-04-11T20:13:00.739Z,12.06
2023-04-11T20:15:29.007Z,11.88
2023-04-11T20:17:56.647Z,12.04
2023-04-11T20:20:29.074Z,12.19
2023-04-11T20:22:56.863Z,12.33
2023-04-11T20:25:25.369Z,12.16
2023-04-11T20:27:53.224Z,12.17
2023-04-11T20:30:20.977Z,12.17
2023-04-11T20:32:48.905Z,12.11
2023-04-11T20:35:16.559Z,12.09
2023-04-11T20:37:44.224Z,12.12
2023-04-11T20:40:14.364Z,12.13
2023-04-11T20:42:47.665Z,11.96
2023-04-11T20:45:18.240Z,11.97
2023-04-11T20:47:47.602Z,11.97
2023-04-11T20:50:17.509Z,11.96
2023-04-11T20:52:47.547Z,11.90
2023-04-11T20:55:15.653Z,11.83
2023-04-11T20:57:44.787Z,11.83
2023-04-11T21:00:14.996Z,11.84
2023-04-11T21:02:45.861Z,11.90
2023-04-11T21:05:18.524Z,11.78
2023-04-11T21:07:46.794Z,11.93
2023-04-11T21:10:15.628Z,11.88
2023-04-11T21:12:43.370Z,11.85
2023-04-11T21:15:11.821Z,11.84
2023-04-11T21:17:39.860Z,11.79
2023-04-11T21:20:18.081Z,11.77
2023-04-11T21:22:55.239Z,11.75
2023-04-11T21:25:25.503Z,11.78
2023-04-11T21:27:53.838Z,11.70
2023-04-11T21:30:21.664Z,11.65
2023-04-11T21:32:49.309Z,11.46
2023-04-11T21:35:16.963Z,11.50
2023-04-11T21:37:45.979Z,10.74
2023-04-11T21:40:20.653Z,10.99
2023-04-11T21:42:48.219Z,11.21
2023-04-11T21:45:16.136Z,11.38
2023-04-11T21:47:43.940Z,11.43
2023-04-11T21:50:12.066Z,11.50
2023-04-11T21:52:39.714Z,11.44
2023-04-11T21:55:09.116Z,11.58
2023-04-11T21:57:37.112Z,11.66
2023-04-11T22:00:08.248Z,11.72
2023-04-11T22:02:44.294Z,11.68
2023-04-11T22:05:17.560Z,11.69
2023-04-11T22:07:48.252Z,11.73
2023-04-11T22:10:23.587Z,11.72
2023-04-11T22:12:54.320Z,11.69
2023-04-11T22:15:21.987Z,11.62
2023-04-11T22:17:50.832Z,11.62
2023-04-11T22:20:19.908Z,11.66
2023-04-11T22:22:48.002Z,11.72
2023-04-11T22:25:24.002Z,11.71
2023-04-11T22:27:54.439Z,11.65
2023-04-11T22:30:25.426Z,11.77
2023-04-11T22:32:55.337Z,11.76
2023-04-11T22:35:25.880Z,11.58
2023-04-11T22:37:57.069Z,11.74
2023-04-11T22:40:25.188Z,11.67
2023-04-11T22:42:53.556Z,11.59
2023-04-11T22:45:23.497Z,11.41
2023-04-11T22:47:54.670Z,11.47
2023-04-11T22:50:23.763Z,11.41
2023-04-11T22:52:51.446Z,11.03
2023-04-11T22:55:20.925Z,11.01
2023-04-11T22:57:53.054Z,11.14
2023-04-11T23:00:23.988Z,11.09
2023-04-11T23:02:52.476Z,11.15
2023-04-11T23:05:20.845Z,11.00
2023-04-11T23:07:48.765Z,11.17
2023-04-11T23:10:17.266Z,11.26
2023-04-11T23:12:45.150Z,11.17
2023-04-11T23:15:13.234Z,11.12
2023-04-11T23:17:41.255Z,10.93
2023-04-11T23:20:15.510Z,10.94
2023-04-11T23:22:44.451Z,11.01
2023-04-11T23:25:15.461Z,11.04
2023-04-11T23:27:44.667Z,11.04
2023-04-11T23:30:12.878Z,11.19
2023-04-11T23:32:41.565Z,11.19
2023-04-11T23:35:09.658Z,11.12
2023-04-11T23:37:37.177Z,11.23
2023-04-11T23:40:11.033Z,11.10
2023-04-11T23:42:45.691Z,11.15
2023-04-11T23:45:14.897Z,11.00
2023-04-11T23:47:42.592Z,10.94
2023-04-11T23:50:11.053Z,11.00
2023-04-11T23:52:39.675Z,10.11
2023-04-11T23:55:07.922Z,10.54
2023-04-11T23:57:35.665Z,10.43
